Time;durP1;ratioP1;P1;durP2;ratioP2;P2;SDS_P1;SDS_P2;PMS_P1;PMS_P2;Temp;Humidity;BMP_temperature;BMP_pressure;BME280_temperature;BME280_humidity;BME280_pressure;Samples;Min_cycle;Max_cycle;Signal;HPM_P1;HPM_P2
2022/07/16 00:03:41;;;;;;;2.28;1.67;;;;;;;16.74;67.26;101866.91;5058277;28;20307;-76
2022/07/16 00:06:06;;;;;;;5.85;2.13;;;;;;;16.67;67.65;101865.94;5045510;28;20032;-76
2022/07/16 00:08:32;;;;;;;4.00;2.03;;;;;;;16.68;67.81;101872.00;5043519;28;20123;-76
2022/07/16 00:10:57;;;;;;;8.77;2.00;;;;;;;16.71;67.53;101867.25;5059119;28;20025;-76
2022/07/16 00:13:23;;;;;;;6.22;1.95;;;;;;;16.76;67.14;101869.34;5045393;28;20036;-74
2022/07/16 00:15:48;;;;;;;3.00;1.50;;;;;;;16.76;66.63;101861.47;5038136;28;20563;-77
2022/07/16 00:20:58;;;;;;;4.07;2.00;;;;;;;16.82;65.87;101860.84;5060880;28;20046;-75
2022/07/16 00:23:23;;;;;;;4.43;1.90;;;;;;;16.84;65.66;101856.25;5059422;28;20036;-75
2022/07/16 00:25:49;;;;;;;4.57;1.95;;;;;;;16.88;65.20;101864.59;5064304;28;20035;-75
2022/07/16 00:28:14;;;;;;;3.92;1.75;;;;;;;16.88;64.94;101857.53;5063806;28;20412;-76
2022/07/16 00:30:40;;;;;;;2.53;1.38;;;;;;;16.89;64.79;101851.28;5061882;28;20059;-75
2022/07/16 00:33:05;;;;;;;5.50;2.20;;;;;;;16.87;65.03;101850.66;5042814;28;20420;-77
2022/07/16 00:35:31;;;;;;;6.80;2.08;;;;;;;16.79;65.85;101853.28;5051494;28;20080;-75
2022/07/16 00:37:56;;;;;;;2.80;1.85;;;;;;;16.70;66.83;101852.50;5065972;28;20046;-74
2022/07/16 00:40:21;;;;;;;4.57;1.70;;;;;;;16.67;66.96;101852.03;5037899;28;20038;-76
2022/07/16 00:42:47;;;;;;;3.17;1.50;;;;;;;16.63;66.75;101859.44;5027871;28;20037;-75
2022/07/16 00:45:12;;;;;;;5.82;2.13;;;;;;;16.61;66.80;101856.13;5045806;28;20017;-74
2022/07/16 00:47:38;;;;;;;5.00;1.70;;;;;;;16.61;66.70;101861.38;5050289;28;20040;-76
2022/07/16 00:50:04;;;;;;;2.03;1.50;;;;;;;16.61;66.44;101865.81;5066973;28;20043;-76
2022/07/16 00:52:29;;;;;;;3.50;1.80;;;;;;;16.58;66.44;101864.34;5044240;28;20116;-76
2022/07/16 00:54:55;;;;;;;7.32;2.20;;;;;;;16.55;66.10;101870.72;5048200;28;20029;-75
2022/07/16 00:57:21;;;;;;;4.18;1.92;;;;;;;16.52;66.23;101865.03;5045575;28;20043;-74
2022/07/16 00:59:46;;;;;;;4.63;2.05;;;;;;;16.49;66.51;101867.97;5068259;28;20040;-77
2022/07/16 01:02:11;;;;;;;5.40;2.05;;;;;;;16.47;66.67;101867.34;5045500;28;20045;-74
2022/07/16 01:04:37;;;;;;;5.03;1.80;;;;;;;16.43;66.92;101866.84;5041355;28;20039;-74
2022/07/16 01:07:03;;;;;;;2.50;1.85;;;;;;;16.32;67.04;101865.41;5032609;28;21962;-76
2022/07/16 01:09:30;;;;;;;2.78;1.75;;;;;;;16.17;67.79;101868.91;5045281;28;20089;-76
2022/07/16 01:11:56;;;;;;;4.47;2.05;;;;;;;16.02;68.44;101860.91;5046313;28;20032;-75
2022/07/16 01:14:21;;;;;;;4.15;1.90;;;;;;;15.84;69.15;101861.06;5047449;28;20463;-74
2022/07/16 01:16:47;;;;;;;4.90;1.80;;;;;;;15.69;69.55;101861.72;5047633;28;20543;-76
2022/07/16 01:19:13;;;;;;;5.20;2.53;;;;;;;15.55;70.31;101865.78;5061768;28;20078;-76
2022/07/16 01:21:40;;;;;;;3.65;1.73;;;;;;;15.49;70.77;101861.22;5031928;28;20105;-76
2022/07/16 01:24:05;;;;;;;6.00;1.90;;;;;;;15.47;70.99;101857.97;5029779;28;20076;-76
2022/07/16 01:26:31;;;;;;;5.32;1.67;;;;;;;15.47;71.19;101859.75;5042516;28;20037;-75
2022/07/16 01:28:56;;;;;;;3.53;2.20;;;;;;;15.47;71.23;101857.16;5029385;28;20037;-76
2022/07/16 01:31:22;;;;;;;5.63;2.00;;;;;;;15.44;71.53;101855.66;5063876;28;20546;-75
2022/07/16 01:34:24;;;;;;;5.70;1.88;;;;;;;15.38;71.86;101857.13;5046592;28;20040;-77
2022/07/16 01:36:33;;;;;;;4.75;2.40;;;;;;;15.32;71.96;101856.97;5059982;28;20055;-76
2022/07/16 01:38:58;;;;;;;4.68;2.20;;;;;;;15.28;72.28;101853.84;5054787;28;20032;-75
2022/07/16 01:41:24;;;;;;;4.53;1.95;;;;;;;15.28;72.43;101851.25;5046144;28;20063;-76
2022/07/16 01:43:49;;;;;;;2.95;2.10;;;;;;;15.33;72.49;101853.38;5061244;28;20099;-76
2022/07/16 01:46:15;;;;;;;4.68;2.13;;;;;;;15.42;72.17;101859.44;5031172;28;20032;-76
2022/07/16 01:48:40;;;;;;;5.13;1.70;;;;;;;15.45;71.95;101859.13;5065330;28;20481;-75
2022/07/16 01:51:06;;;;;;;7.32;2.38;;;;;;;15.46;71.57;101855.50;5047557;28;20059;-75
2022/07/16 01:53:31;;;;;;;5.32;2.22;;;;;;;15.47;71.40;101857.97;5045056;28;21559;-75
2022/07/16 01:55:57;;;;;;;3.95;1.90;;;;;;;15.49;70.68;101852.56;5066303;28;20037;-75
2022/07/16 01:58:23;;;;;;;3.50;1.90;;;;;;;15.52;70.60;101854.84;5044359;28;20463;-74
2022/07/16 02:00:49;;;;;;;14.50;3.22;;;;;;;15.56;70.20;101861.41;5032641;28;20045;-74
2022/07/16 02:03:14;;;;;;;5.15;2.38;;;;;;;15.59;69.87;101866.28;5046416;28;20032;-76
2022/07/16 02:05:40;;;;;;;4.60;2.38;;;;;;;15.62;69.63;101863.34;5064722;28;20033;-76
2022/07/16 02:08:06;;;;;;;3.90;2.50;;;;;;;15.63;69.57;101864.97;5043755;28;20029;-76
2022/07/16 02:10:33;;;;;;;6.72;2.45;;;;;;;15.64;69.40;101853.56;5060572;28;20047;-76
2022/07/16 02:12:58;;;;;;;5.05;2.00;;;;;;;15.68;69.14;101859.28;5045148;28;20075;-76
2022/07/16 02:15:24;;;;;;;5.63;2.30;;;;;;;15.67;69.17;101855.00;5045624;28;20033;-75
2022/07/16 02:17:49;;;;;;;6.72;3.35;;;;;;;15.64;69.31;101852.75;5045152;28;20031;-75
2022/07/16 02:20:15;;;;;;;6.18;2.90;;;;;;;15.63;69.24;101849.28;5061157;28;20563;-75
2022/07/16 02:22:41;;;;;;;6.32;2.67;;;;;;;15.63;69.22;101853.72;5063357;28;20040;-75
2022/07/16 02:25:08;;;;;;;8.07;3.60;;;;;;;15.63;69.24;101854.53;5026707;28;20033;-74
2022/07/16 02:27:34;;;;;;;7.25;2.60;;;;;;;15.58;69.49;101857.63;5041709;28;20032;-75
2022/07/16 02:29:59;;;;;;;4.95;2.42;;;;;;;15.57;69.48;101849.94;5061413;28;20508;-76
2022/07/16 02:32:27;;;;;;;9.35;2.85;;;;;;;15.59;69.40;101850.59;5043193;28;20044;-75
2022/07/16 02:34:53;;;;;;;8.40;3.10;;;;;;;15.61;69.02;101850.44;5044320;28;20101;-74
2022/07/16 02:37:18;;;;;;;5.35;2.80;;;;;;;15.61;69.22;101853.06;5046105;28;20036;-74
2022/07/16 02:39:43;;;;;;;12.98;3.65;;;;;;;15.61;69.53;101851.25;5039051;28;20045;-76
2022/07/16 02:42:09;;;;;;;4.32;2.25;;;;;;;15.62;69.27;101850.28;5028212;28;20105;-76
2022/07/16 02:44:34;;;;;;;2.88;2.28;;;;;;;15.63;69.08;101849.28;5059023;28;20061;-76
2022/07/16 02:47:00;;;;;;;7.32;3.03;;;;;;;15.70;68.66;101846.84;5059990;28;20030;-76
2022/07/16 02:49:25;;;;;;;5.72;2.63;;;;;;;15.68;68.84;101841.78;5042734;28;20818;-76
2022/07/16 02:51:51;;;;;;;4.88;2.50;;;;;;;15.70;68.53;101845.03;5056524;28;20063;-75
2022/07/16 02:54:16;;;;;;;5.72;3.47;;;;;;;15.68;68.46;101846.19;5043226;28;20039;-76
2022/07/16 02:56:42;;;;;;;11.75;2.38;;;;;;;15.72;68.15;101847.50;5061056;28;20032;-76
2022/07/16 02:59:07;;;;;;;8.85;2.40;;;;;;;15.69;68.28;101848.66;5042737;28;20033;-77
2022/07/16 03:01:33;;;;;;;6.75;2.58;;;;;;;15.66;68.39;101842.94;5026547;28;20040;-76
2022/07/16 03:03:58;;;;;;;6.80;2.35;;;;;;;15.68;68.82;101847.00;5040900;28;20037;-75
2022/07/16 03:06:24;;;;;;;8.18;2.35;;;;;;;15.67;68.56;101849.78;5060041;28;20036;-76
2022/07/16 03:08:50;;;;;;;4.88;2.65;;;;;;;15.70;68.42;101844.22;5063006;28;20040;-74
2022/07/16 03:11:16;;;;;;;5.78;2.28;;;;;;;15.70;68.37;101847.66;5041075;28;20037;-75
2022/07/16 03:13:42;;;;;;;5.35;2.13;;;;;;;15.69;68.11;101847.81;5060688;28;20068;-73
2022/07/16 03:16:08;;;;;;;5.68;2.08;;;;;;;15.71;68.09;101840.66;5043758;28;20046;-75
2022/07/16 03:18:33;;;;;;;11.60;3.25;;;;;;;15.73;67.98;101846.53;5058218;28;20227;-75
2022/07/16 03:20:59;;;;;;;4.25;2.38;;;;;;;15.76;67.98;101844.44;5059233;28;20036;-76
2022/07/16 03:23:25;;;;;;;5.50;2.30;;;;;;;15.73;67.88;101849.16;5028737;28;20784;-77
2022/07/16 03:25:50;;;;;;;6.40;2.60;;;;;;;15.67;68.03;101853.25;5028834;28;20222;-76
2022/07/16 03:28:15;;;;;;;6.90;2.53;;;;;;;15.68;67.79;101857.47;5045319;28;20032;-76
2022/07/16 03:30:41;;;;;;;5.47;2.40;;;;;;;15.71;67.59;101851.91;5043488;28;20508;-77
2022/07/16 03:33:06;;;;;;;7.50;2.85;;;;;;;15.79;67.41;101853.75;5043961;28;20489;-74
2022/07/16 03:35:32;;;;;;;4.80;2.30;;;;;;;15.73;67.25;101851.75;5042955;28;20085;-76
2022/07/16 03:40:42;;;;;;;5.05;2.47;;;;;;;15.71;66.91;101858.97;5059575;28;20067;-76
2022/07/16 03:43:07;;;;;;;3.20;2.13;;;;;;;15.69;67.02;101846.03;5058558;28;20075;-76
2022/07/16 03:45:33;;;;;;;4.90;1.77;;;;;;;15.71;67.06;101851.13;5044708;28;20041;-75
2022/07/16 03:47:59;;;;;;;4.32;2.00;;;;;;;15.72;66.85;101861.38;5028137;28;20507;-76
2022/07/16 03:50:24;;;;;;;5.18;2.30;;;;;;;15.76;66.26;101864.53;5064000;28;20024;-76
2022/07/16 03:52:50;;;;;;;4.03;1.70;;;;;;;15.73;66.24;101870.91;5031390;28;20812;-76
2022/07/16 03:55:15;;;;;;;3.97;1.83;;;;;;;15.73;66.48;101872.69;5040503;28;20124;-76
2022/07/16 03:57:42;;;;;;;4.50;2.70;;;;;;;15.77;65.98;101869.59;5061825;28;20047;-77
2022/07/16 04:00:08;;;;;;;4.03;2.28;;;;;;;15.73;65.94;101870.91;5059038;28;20040;-75
2022/07/16 04:02:34;;;;;;;4.72;2.20;;;;;;;15.74;65.66;101871.72;5059907;28;20071;-76
2022/07/16 04:05:00;;;;;;;6.70;2.08;;;;;;;15.71;65.90;101866.81;5061875;28;20032;-74
2022/07/16 04:07:25;;;;;;;4.70;1.80;;;;;;;15.73;65.81;101862.22;5059229;28;20865;-76
2022/07/16 04:09:50;;;;;;;8.20;2.33;;;;;;;15.77;65.70;101866.16;5027051;28;20032;-76
2022/07/16 04:12:16;;;;;;;6.63;2.20;;;;;;;15.76;65.85;101870.59;5057885;28;20037;-75
2022/07/16 04:14:42;;;;;;;6.13;1.67;;;;;;;15.75;65.64;101868.94;5043951;28;20048;-75
2022/07/16 04:17:07;;;;;;;5.28;2.00;;;;;;;15.73;65.74;101865.69;5041540;28;20043;-76
2022/07/16 04:19:33;;;;;;;3.92;1.75;;;;;;;15.73;65.43;101864.84;5037569;28;20060;-75
2022/07/16 04:21:58;;;;;;;2.17;1.42;;;;;;;15.75;65.44;101863.72;5058592;28;20098;-78
2022/07/16 04:24:23;;;;;;;4.43;1.88;;;;;;;15.77;65.57;101856.50;5042516;28;20155;-76
2022/07/16 04:26:49;;;;;;;3.33;1.73;;;;;;;15.82;65.24;101860.44;5062346;28;20062;-76
2022/07/16 04:29:14;;;;;;;5.55;2.25;;;;;;;15.81;65.27;101858.81;5041183;28;20497;-75
2022/07/16 04:31:40;;;;;;;8.10;1.90;;;;;;;15.82;65.16;101863.84;5041213;28;20043;-76
2022/07/16 04:34:05;;;;;;;5.72;1.75;;;;;;;15.88;64.89;101871.06;5058461;28;20040;-75
2022/07/16 04:36:31;;;;;;;6.28;2.00;;;;;;;15.89;64.63;101872.69;5038977;28;20032;-75
2022/07/16 04:38:56;;;;;;;5.68;2.42;;;;;;;15.86;64.66;101875.66;5027326;28;20037;-75
2022/07/16 04:41:22;;;;;;;7.85;2.38;;;;;;;15.92;64.70;101880.22;5038718;28;20036;-75
2022/07/16 04:43:47;;;;;;;6.88;2.40;;;;;;;15.88;65.08;101872.84;5043035;28;20028;-75
2022/07/16 04:46:12;;;;;;;6.35;2.25;;;;;;;15.89;64.71;101877.09;5044034;28;20350;-76
2022/07/16 04:48:38;;;;;;;3.78;2.17;;;;;;;15.92;64.72;101882.00;5042361;28;20033;-75
2022/07/16 04:51:05;;;;;;;4.03;2.10;;;;;;;15.94;65.15;101875.63;5040899;28;20720;-76
2022/07/16 04:53:31;;;;;;;3.22;1.85;;;;;;;16.02;64.77;101884.44;5041243;28;20112;-76
2022/07/16 04:55:57;;;;;;;5.78;2.10;;;;;;;15.99;64.93;101879.53;5041852;28;20039;-75
2022/07/16 04:58:22;;;;;;;5.22;2.35;;;;;;;16.05;64.65;101878.88;5057376;28;20036;-76
2022/07/16 05:00:48;;;;;;;3.83;1.95;;;;;;;16.08;64.61;101883.78;5060668;28;20055;-74
2022/07/16 05:03:13;;;;;;;4.95;2.17;;;;;;;16.13;64.23;101877.06;5058982;28;20043;-74
2022/07/16 05:05:40;;;;;;;6.88;2.60;;;;;;;16.21;63.67;101886.69;5040857;28;20036;-75
2022/07/16 05:08:08;;;;;;;4.78;2.53;;;;;;;16.23;63.67;101882.13;5037730;28;20578;-77
2022/07/16 05:10:34;;;;;;;6.90;2.15;;;;;;;16.31;63.24;101886.50;5044034;28;20032;-77
2022/07/16 05:12:59;;;;;;;5.10;2.05;;;;;;;16.28;64.34;101879.81;5047841;28;20570;-73
2022/07/16 05:15:26;;;;;;;7.30;2.50;;;;;;;16.33;64.16;101880.13;5027832;28;20451;-74
2022/07/16 05:17:52;;;;;;;3.10;1.70;;;;;;;16.34;64.41;101889.59;5041481;28;20388;-75
2022/07/16 05:20:17;;;;;;;6.68;2.03;;;;;;;16.41;63.85;101879.28;5045608;28;20043;-74
2022/07/16 05:22:43;;;;;;;3.72;2.13;;;;;;;16.54;63.88;101879.59;5042961;28;20036;-76
2022/07/16 05:25:10;;;;;;;6.35;2.63;;;;;;;16.50;63.50;101888.75;5066095;28;20562;-75
2022/07/16 05:27:36;;;;;;;4.32;1.90;;;;;;;16.51;63.91;101890.38;5044205;28;20033;-76
2022/07/16 05:30:04;;;;;;;3.63;2.08;;;;;;;16.47;64.18;101894.31;5062120;28;20043;-76
2022/07/16 05:32:29;;;;;;;4.47;1.83;;;;;;;16.58;64.00;101895.78;5060241;28;20451;-76
2022/07/16 05:34:55;;;;;;;5.10;2.20;;;;;;;16.62;64.04;101893.63;5061891;28;20542;-75
2022/07/16 05:37:20;;;;;;;4.15;2.10;;;;;;;16.72;63.77;101886.38;5047770;28;20538;-75
2022/07/16 05:39:46;;;;;;;5.00;2.60;;;;;;;16.56;64.62;101908.22;5044592;28;20089;-77
2022/07/16 05:42:11;;;;;;;8.80;2.95;;;;;;;16.61;64.40;101900.66;5045126;28;20035;-76
2022/07/16 05:44:37;;;;;;;8.98;2.70;;;;;;;16.52;65.38;101905.13;5044948;28;20024;-76
2022/07/16 05:47:03;;;;;;;5.30;2.65;;;;;;;16.47;65.31;101910.03;5047000;28;20063;-76
2022/07/16 05:49:28;;;;;;;7.82;3.08;;;;;;;16.54;65.01;101916.22;5047544;28;20043;-76
2022/07/16 05:51:54;;;;;;;7.28;3.03;;;;;;;16.58;65.68;101915.91;5045519;28;20022;-76
2022/07/16 05:54:20;;;;;;;5.32;2.75;;;;;;;16.63;66.12;101914.41;5043443;28;20043;-75
2022/07/16 05:56:45;;;;;;;6.90;3.13;;;;;;;16.73;65.73;101912.41;5063711;28;20413;-77
2022/07/16 05:59:11;;;;;;;5.57;2.60;;;;;;;16.95;65.49;101917.91;5045849;28;20025;-75
2022/07/16 06:01:36;;;;;;;4.93;2.50;;;;;;;17.11;64.93;101915.19;5043048;28;20089;-75
2022/07/16 06:04:02;;;;;;;7.57;3.75;;;;;;;17.28;64.42;101917.75;5046432;28;20024;-77
2022/07/16 06:06:27;;;;;;;5.32;3.22;;;;;;;17.42;64.15;101929.28;5028164;28;20028;-76
2022/07/16 06:08:53;;;;;;;7.43;2.80;;;;;;;17.56;63.90;101920.66;5044615;28;21505;-77
2022/07/16 06:11:18;;;;;;;3.83;2.67;;;;;;;17.83;63.49;101926.34;5046501;28;20036;-77
2022/07/16 06:13:44;;;;;;;5.57;2.72;;;;;;;17.90;63.12;101922.88;5026422;28;20025;-76
2022/07/16 06:16:09;;;;;;;15.07;6.40;;;;;;;18.40;62.75;101923.25;5059969;28;20102;-76
2022/07/16 06:18:35;;;;;;;8.02;3.28;;;;;;;19.02;61.00;101926.44;5062462;28;20062;-75
2022/07/16 06:21:01;;;;;;;11.95;4.07;;;;;;;19.36;59.32;101925.00;5043923;28;20397;-75
2022/07/16 06:23:26;;;;;;;8.95;3.20;;;;;;;19.35;59.76;101929.44;5063885;28;20032;-77
2022/07/16 06:25:52;;;;;;;7.75;4.32;;;;;;;19.19;60.42;101927.88;5047430;28;20041;-78
2022/07/16 06:28:17;;;;;;;7.78;3.88;;;;;;;19.20;60.68;101932.13;5030917;28;20804;-77
2022/07/16 06:30:43;;;;;;;10.35;4.95;;;;;;;19.41;59.83;101935.78;5046206;28;20435;-78
2022/07/16 06:33:09;;;;;;;8.05;4.72;;;;;;;19.83;58.82;101935.00;5064440;28;20040;-76
2022/07/16 06:35:35;;;;;;;9.70;4.05;;;;;;;20.37;57.75;101940.63;5043404;28;20047;-76
2022/07/16 06:38:02;;;;;;;9.65;4.22;;;;;;;20.89;56.38;101938.47;5042752;28;20047;-77
2022/07/16 06:40:27;;;;;;;6.97;4.57;;;;;;;21.04;55.65;101936.50;5041120;28;20086;-76
2022/07/16 06:42:53;;;;;;;17.25;5.15;;;;;;;20.86;56.59;101937.06;5050306;28;20467;-76
2022/07/16 06:45:20;;;;;;;10.35;4.35;;;;;;;20.97;56.28;101941.75;5041124;28;20261;-74
2022/07/16 06:47:46;;;;;;;11.25;5.13;;;;;;;21.01;56.21;101944.81;5045294;28;20496;-75
2022/07/16 06:50:11;;;;;;;6.53;3.90;;;;;;;21.14;56.56;101947.50;5046377;28;20044;-77
2022/07/16 06:52:36;;;;;;;8.88;4.47;;;;;;;21.03;57.62;101955.97;5027140;28;20554;-76
2022/07/16 06:55:03;;;;;;;14.40;5.60;;;;;;;20.78;58.84;101958.31;5032283;28;20025;-77
2022/07/16 06:57:28;;;;;;;7.68;4.32;;;;;;;20.47;60.26;101964.78;5061157;28;20389;-77
2022/07/16 06:59:54;;;;;;;5.97;4.15;;;;;;;20.21;61.22;101966.25;5046891;28;20040;-76
2022/07/16 07:02:19;;;;;;;10.27;4.03;;;;;;;20.01;61.82;101967.94;5048066;28;20039;-75
2022/07/16 07:04:45;;;;;;;8.27;4.07;;;;;;;20.07;62.54;101966.34;5044835;28;20368;-76
2022/07/16 07:07:10;;;;;;;7.80;4.32;;;;;;;20.11;63.02;101970.22;5047166;28;20032;-74
2022/07/16 07:09:36;;;;;;;12.25;5.75;;;;;;;20.90;60.45;101959.38;5040401;28;20114;-76
2022/07/16 07:12:01;;;;;;;9.95;4.07;;;;;;;21.42;58.56;101965.00;5044582;28;20055;-76
2022/07/16 07:14:27;;;;;;;10.15;4.78;;;;;;;20.74;60.13;101971.06;5060879;28;20032;-76
2022/07/16 07:16:52;;;;;;;4.85;4.00;;;;;;;20.80;60.30;101969.47;5045380;28;20032;-78
2022/07/16 07:19:18;;;;;;;5.85;3.90;;;;;;;20.86;60.65;101975.78;5048945;28;20039;-77
2022/07/16 07:21:43;;;;;;;9.55;4.05;;;;;;;21.21;59.09;101976.53;5061169;28;20105;-76
2022/07/16 07:24:08;;;;;;;9.73;3.80;;;;;;;21.68;57.94;101977.47;5061113;28;20060;-76
2022/07/16 07:26:34;;;;;;;7.13;3.78;;;;;;;22.05;56.79;101974.41;5061164;28;20069;-75
2022/07/16 07:28:59;;;;;;;4.50;3.45;;;;;;;22.17;56.55;101978.09;5048516;28;20040;-76
2022/07/16 07:31:25;;;;;;;6.55;3.30;;;;;;;22.35;55.56;101972.97;5025328;28;20036;-75
2022/07/16 07:33:50;;;;;;;19.33;9.90;;;;;;;21.90;56.32;101979.91;5058016;28;20033;-75
2022/07/16 07:36:16;;;;;;;8.63;4.00;;;;;;;21.70;57.69;101985.16;5038299;28;20043;-76
2022/07/16 07:38:41;;;;;;;5.63;3.72;;;;;;;21.41;58.07;101991.59;5041444;28;20035;-76
2022/07/16 07:41:07;;;;;;;5.60;3.03;;;;;;;20.90;59.14;101992.81;5060633;28;20025;-74
2022/07/16 07:43:32;;;;;;;4.07;2.08;;;;;;;20.69;60.53;101996.38;5041505;28;20416;-75
2022/07/16 07:45:58;;;;;;;8.32;2.95;;;;;;;20.79;60.20;102000.28;5042636;28;20081;-74
2022/07/16 07:48:23;;;;;;;8.00;2.30;;;;;;;20.80;59.60;102001.91;5026691;28;20031;-75
2022/07/16 07:50:49;;;;;;;6.10;2.58;;;;;;;20.69;60.45;101999.00;5044903;28;20108;-75
2022/07/16 07:53:14;;;;;;;5.20;2.22;;;;;;;20.67;58.26;101998.38;5060634;28;20057;-74
2022/07/16 07:55:41;;;;;;;7.78;1.58;;;;;;;20.58;57.72;102008.22;5037228;28;20036;-75
2022/07/16 07:58:07;;;;;;;3.03;1.45;;;;;;;20.37;57.16;102009.91;5066515;28;20556;-74
2022/07/16 08:00:32;;;;;;;2.67;1.20;;;;;;;20.38;55.79;102006.28;5043737;28;20039;-75
2022/07/16 08:02:58;;;;;;;4.57;1.20;;;;;;;20.56;55.10;102007.59;5063691;28;20043;-76
2022/07/16 08:05:24;;;;;;;3.63;0.88;;;;;;;20.71;53.65;102010.97;5060114;28;20024;-76
2022/07/16 08:07:50;;;;;;;3.20;0.70;;;;;;;20.65;49.32;102018.84;5046772;28;20024;-76
2022/07/16 08:10:15;;;;;;;1.45;0.77;;;;;;;20.46;47.39;102012.41;5068431;28;20032;-76
2022/07/16 08:12:41;;;;;;;2.47;0.70;;;;;;;20.42;47.11;102010.16;5061236;28;20032;-74
2022/07/16 08:15:08;;;;;;;1.70;0.77;;;;;;;20.50;45.50;102003.94;5045573;28;20098;-75
2022/07/16 08:17:34;;;;;;;1.02;0.50;;;;;;;20.72;45.08;102015.25;5048093;28;20028;-75
2022/07/16 08:19:59;;;;;;;2.20;1.02;;;;;;;20.66;45.69;102013.38;5070018;28;20424;-75
2022/07/16 08:22:25;;;;;;;2.28;0.70;;;;;;;21.13;45.89;102010.97;5040301;28;20029;-75
2022/07/16 08:27:34;;;;;;;6.43;0.70;;;;;;;21.16;45.86;102021.13;5065693;28;20036;-75
2022/07/16 08:30:00;;;;;;;1.38;0.68;;;;;;;21.12;46.71;102015.44;5041190;28;20129;-75
2022/07/16 08:32:25;;;;;;;2.35;0.80;;;;;;;21.58;46.86;102022.69;5045180;28;20044;-75
2022/07/16 08:34:51;;;;;;;3.30;0.77;;;;;;;22.01;45.24;102021.53;5064634;28;20032;-76
2022/07/16 08:37:39;;;;;;;4.80;0.90;;;;;;;23.04;44.18;102014.94;5063509;28;20123;-75
2022/07/16 08:40:08;;;;;;;2.67;0.85;;;;;;;22.63;42.76;102022.13;5030577;28;20098;-76
2022/07/16 08:42:35;;;;;;;1.65;0.70;;;;;;;22.40;43.82;102029.69;5058268;28;20551;-76
2022/07/16 08:45:02;;;;;;;3.10;0.77;;;;;;;22.73;43.66;102019.03;5047337;28;20031;-78
2022/07/16 08:47:30;;;;;;;1.23;0.60;;;;;;;22.76;43.11;102029.22;5069043;28;20028;-76
2022/07/16 08:49:55;;;;;;;3.90;0.90;;;;;;;22.93;43.37;102033.03;5053013;28;20028;-76
2022/07/16 08:52:25;;;;;;;2.25;0.80;;;;;;;23.12;43.08;102039.28;5046938;28;20684;-75
2022/07/16 08:54:52;;;;;;;2.85;0.80;;;;;;;23.28;43.15;102034.53;5033765;28;20028;-77
2022/07/16 08:57:17;;;;;;;1.60;0.90;;;;;;;23.53;42.81;102034.63;5048972;28;20059;-75
2022/07/16 08:59:43;;;;;;;1.90;0.90;;;;;;;23.65;43.23;102038.19;5071086;28;20012;-77
2022/07/16 09:02:14;;;;;;;3.95;0.77;;;;;;;24.19;42.24;102038.66;5045405;28;20413;-76
2022/07/16 09:04:41;;;;;;;3.00;0.80;;;;;;;24.50;41.23;102047.53;5070315;28;20188;-77
2022/07/16 09:07:07;;;;;;;2.47;1.13;;;;;;;24.31;41.65;102041.38;5044891;28;20043;-77
2022/07/16 09:09:33;;;;;;;5.30;0.80;;;;;;;24.82;41.04;102042.94;5054551;28;20061;-77
2022/07/16 09:11:58;;;;;;;3.80;1.10;;;;;;;25.16;40.38;102045.19;5050797;28;20036;-77
2022/07/16 09:14:24;;;;;;;4.13;0.90;;;;;;;24.34;40.28;102061.38;5050731;28;20033;-76
2022/07/16 09:16:53;;;;;;;3.35;0.98;;;;;;;24.56;39.90;102054.63;5050466;28;20803;-76
2022/07/16 09:19:24;;;;;;;2.85;1.10;;;;;;;25.10;40.01;102060.16;5064735;28;20103;-76
2022/07/16 09:22:02;;;;;;;4.70;0.93;;;;;;;25.59;38.46;102062.84;5049066;28;20147;-76
2022/07/16 09:24:43;;;;;;;5.35;1.05;;;;;;;25.24;38.94;102061.66;5069284;28;20085;-77
2022/07/16 09:27:12;;;;;;;3.33;1.00;;;;;;;25.29;39.68;102062.84;5032400;28;20044;-76
2022/07/16 09:29:48;;;;;;;2.25;0.90;;;;;;;25.31;39.18;102063.41;5047597;28;20409;-77
2022/07/16 09:32:39;;;;;;;2.10;0.88;;;;;;;25.69;38.61;102067.59;5043966;28;20124;-77
2022/07/16 09:35:15;;;;;;;2.80;0.90;;;;;;;25.76;38.33;102063.78;5051457;28;20041;-76
2022/07/16 09:37:54;;;;;;;2.63;1.02;;;;;;;25.50;36.95;102074.81;5048419;28;20131;-76
2022/07/16 09:40:36;;;;;;;8.98;0.80;;;;;;;25.72;36.88;102062.63;5044370;28;20029;-77
2022/07/16 09:43:11;;;;;;;1.75;0.90;;;;;;;25.95;37.53;102067.22;5067700;28;20036;-77
2022/07/16 09:45:39;;;;;;;1.20;0.63;;;;;;;26.24;37.83;102067.38;5062014;28;20047;-77
2022/07/16 09:48:30;;;;;;;3.42;0.95;;;;;;;25.63;38.51;102071.97;5049510;28;20044;-76
2022/07/16 09:51:11;;;;;;;4.00;0.93;;;;;;;25.28;38.90;102070.00;5048147;28;20071;-78
2022/07/16 09:53:38;;;;;;;5.32;0.95;;;;;;;24.83;40.00;102079.06;5069200;28;20059;-78
2022/07/16 09:56:06;;;;;;;2.58;0.80;;;;;;;24.91;38.75;102077.13;5049473;28;20037;-76
2022/07/16 09:58:33;;;;;;;2.80;0.80;;;;;;;25.08;38.86;102083.47;5065848;28;20055;-76
2022/07/16 10:00:59;;;;;;;1.70;0.73;;;;;;;25.59;38.17;102084.06;5030688;28;20064;-77
2022/07/16 10:03:26;;;;;;;2.78;0.85;;;;;;;25.97;37.58;102073.09;5045178;28;20028;-79
2022/07/16 10:05:52;;;;;;;2.88;0.80;;;;;;;26.23;37.33;102081.69;5065385;28;20024;-78
2022/07/16 10:08:17;;;;;;;2.63;0.90;;;;;;;25.56;37.21;102073.91;5066847;28;20032;-76
2022/07/16 10:10:46;;;;;;;1.27;0.80;;;;;;;24.71;38.80;102083.44;5028990;28;20044;-77
2022/07/16 10:13:12;;;;;;;4.88;1.00;;;;;;;24.25;40.18;102090.78;5052242;28;20085;-77
2022/07/16 10:15:38;;;;;;;1.55;0.90;;;;;;;24.49;40.17;102077.72;5049148;28;20040;-77
2022/07/16 10:18:29;;;;;;;2.00;0.80;;;;;;;25.49;38.75;102076.66;5045186;28;20044;-77
2022/07/16 10:21:11;;;;;;;6.10;1.27;;;;;;;26.19;37.06;102076.03;5044909;28;20684;-77
2022/07/16 10:23:39;;;;;;;2.47;0.73;;;;;;;26.59;36.66;102080.69;5032505;28;20033;-78
2022/07/16 10:26:16;;;;;;;2.47;0.70;;;;;;;26.71;35.64;102071.88;5066530;28;20536;-76
2022/07/16 10:28:56;;;;;;;2.97;0.80;;;;;;;25.80;37.21;102080.09;5049542;28;20028;-76
2022/07/16 10:31:40;;;;;;;1.73;1.13;;;;;;;25.37;38.75;102081.94;5066878;28;20444;-76
2022/07/16 10:34:14;;;;;;;2.28;1.25;;;;;;;25.05;38.42;102090.03;5048258;28;20028;-77
2022/07/16 10:36:52;;;;;;;3.28;1.35;;;;;;;24.93;39.41;102080.38;5061131;28;20029;-77
2022/07/16 10:39:19;;;;;;;4.93;0.80;;;;;;;24.90;39.02;102099.38;5030515;28;20021;-79
2022/07/16 10:41:51;;;;;;;3.17;0.85;;;;;;;24.95;39.47;102100.34;5064069;28;20621;-77
2022/07/16 10:44:17;;;;;;;2.33;0.90;;;;;;;25.12;38.50;102095.25;5050429;28;20850;-77
2022/07/16 10:47:01;;;;;;;3.10;0.82;;;;;;;25.80;38.34;102096.03;5059585;28;20043;-76
2022/07/16 10:49:29;;;;;;;2.35;0.80;;;;;;;25.67;37.85;102101.53;5054431;28;20028;-77
2022/07/16 10:52:01;;;;;;;1.50;0.80;;;;;;;25.29;36.94;102097.34;5065093;28;20070;-77
2022/07/16 10:54:29;;;;;;;3.20;0.67;;;;;;;25.37;37.40;102099.69;5068294;28;20024;-77
2022/07/16 10:56:56;;;;;;;4.93;0.70;;;;;;;25.61;37.27;102101.38;5058805;28;20028;-78
2022/07/16 10:59:28;;;;;;;3.53;0.98;;;;;;;25.21;37.18;102111.69;5061845;28;20106;-76
2022/07/16 11:01:57;;;;;;;3.70;1.10;;;;;;;24.89;38.77;102111.84;5054408;28;20037;-77
2022/07/16 11:04:40;;;;;;;1.55;0.90;;;;;;;24.75;38.23;102118.28;5056177;28;20036;-77
2022/07/16 11:07:08;;;;;;;2.97;0.80;;;;;;;24.59;38.75;102120.47;5063161;28;20033;-77
2022/07/16 11:09:38;;;;;;;2.30;1.15;;;;;;;24.39;39.18;102118.00;5074106;28;20040;-77
2022/07/16 11:12:15;;;;;;;4.28;0.88;;;;;;;24.67;39.03;102108.78;5059369;28;20105;-79
2022/07/16 11:14:43;;;;;;;7.00;1.30;;;;;;;24.61;38.94;102114.97;5060311;28;20547;-78
2022/07/16 11:17:09;;;;;;;6.47;0.98;;;;;;;24.37;38.57;102117.38;5061919;28;20988;-76
2022/07/16 11:19:48;;;;;;;7.28;0.98;;;;;;;24.40;38.64;102126.75;5061404;28;20090;-78
2022/07/16 11:22:17;;;;;;;4.13;1.10;;;;;;;24.82;38.52;102119.84;5066914;28;20041;-77
2022/07/16 11:24:52;;;;;;;3.15;1.00;;;;;;;25.12;37.23;102118.31;5065155;28;20417;-78
2022/07/16 11:27:18;;;;;;;4.53;0.85;;;;;;;25.31;36.50;102116.50;5062621;28;20081;-77
2022/07/16 11:29:44;;;;;;;3.80;0.80;;;;;;;25.68;37.11;102121.75;5065217;28;20044;-78
2022/07/16 11:32:16;;;;;;;3.55;0.80;;;;;;;25.05;37.58;102127.19;5063405;28;20054;-77
2022/07/16 11:34:41;;;;;;;3.58;1.35;;;;;;;24.62;38.64;102141.28;5064825;28;20039;-77